WUK7KG EGGW-LRCK
Flight info
| Callsign | WUK7KG |
|---|---|
| Flight time | N/A |
| Altitude | 35000 |
| Route | MATCH Q295 BRAIN M197 REDFA L620 TACHA DCT RKN DCT KUMER DCT OMELO DCT EVIKU DCT ROMIS DCT PITOK DCT PERIT DCT BADOR DCT RIVOS |
| Aircraft | A21N/M-SDE3FGHIRWY/LB1 |
Departure
| Time | N/A |
|---|---|
| Airport | London Luton Airport (EGGW) |
Arrival
| Time | 2026-05-06 13:09 |
|---|---|
| Airport | Mihail Kogălniceanu International Airport (LRCK) |
| Time | Latitude | Longitude | Altitude | Speed | Heading |
|---|---|---|---|---|---|
| 2026-05-06 12:46 | 45.35312 | 26.42514 | 35540 ft | 474 kts | 126° |
| 2026-05-06 12:46 | 45.33275 | 26.46173 | 34740 ft | 480 kts | 126° |
| 2026-05-06 12:47 | 45.31221 | 26.49858 | 33901 ft | 483 kts | 126° |
| 2026-05-06 12:47 | 45.29130 | 26.53612 | 33053 ft | 485 kts | 126° |
| 2026-05-06 12:47 | 45.27062 | 26.57322 | 32234 ft | 486 kts | 126° |
| 2026-05-06 12:47 | 45.24975 | 26.61062 | 31411 ft | 486 kts | 126° |
| 2026-05-06 12:48 | 45.22867 | 26.64833 | 30575 ft | 487 kts | 126° |
| 2026-05-06 12:48 | 45.20795 | 26.68537 | 29728 ft | 487 kts | 126° |
| 2026-05-06 12:48 | 45.18684 | 26.72303 | 28850 ft | 488 kts | 126° |
| 2026-05-06 12:48 | 45.16598 | 26.76022 | 28107 ft | 485 kts | 126° |
| 2026-05-06 12:49 | 45.14518 | 26.79720 | 27576 ft | 478 kts | 126° |
| 2026-05-06 12:49 | 45.12492 | 26.83319 | 27046 ft | 471 kts | 126° |
| 2026-05-06 12:49 | 45.10447 | 26.86946 | 26454 ft | 466 kts | 126° |
| 2026-05-06 12:49 | 45.08466 | 26.90458 | 25854 ft | 461 kts | 126° |
| 2026-05-06 12:50 | 45.06481 | 26.93973 | 25256 ft | 457 kts | 126° |
| 2026-05-06 12:50 | 45.04527 | 26.97431 | 24656 ft | 452 kts | 126° |
| 2026-05-06 12:50 | 45.02585 | 27.00860 | 24055 ft | 447 kts | 126° |
| 2026-05-06 12:50 | 45.00657 | 27.04263 | 23455 ft | 443 kts | 126° |
| 2026-05-06 12:51 | 44.98740 | 27.07643 | 22856 ft | 438 kts | 126° |
| 2026-05-06 12:51 | 44.96863 | 27.10947 | 22286 ft | 433 kts | 126° |
| 2026-05-06 12:51 | 44.95001 | 27.14220 | 21707 ft | 428 kts | 126° |
| 2026-05-06 12:51 | 44.93144 | 27.17477 | 21126 ft | 424 kts | 126° |
| 2026-05-06 12:52 | 44.91330 | 27.20657 | 20553 ft | 419 kts | 126° |
| 2026-05-06 12:52 | 44.89534 | 27.23805 | 19992 ft | 415 kts | 126° |
| 2026-05-06 12:52 | 44.87743 | 27.26941 | 19353 ft | 413 kts | 125° |
| 2026-05-06 12:52 | 44.85947 | 27.30082 | 18736 ft | 410 kts | 125° |
| 2026-05-06 12:53 | 44.84161 | 27.33200 | 18211 ft | 405 kts | 125° |
| 2026-05-06 12:53 | 44.82426 | 27.36226 | 17722 ft | 400 kts | 125° |
| 2026-05-06 12:53 | 44.80682 | 27.39267 | 17222 ft | 395 kts | 125° |
| 2026-05-06 12:53 | 44.78972 | 27.42244 | 16715 ft | 391 kts | 125° |
| 2026-05-06 12:54 | 44.77287 | 27.45176 | 16221 ft | 388 kts | 125° |
| 2026-05-06 12:54 | 44.75588 | 27.48129 | 15716 ft | 384 kts | 125° |
| 2026-05-06 12:54 | 44.73928 | 27.51009 | 15225 ft | 381 kts | 126° |
| 2026-05-06 12:54 | 44.72270 | 27.53884 | 14726 ft | 378 kts | 126° |
| 2026-05-06 12:55 | 44.70635 | 27.56716 | 14238 ft | 375 kts | 126° |
| 2026-05-06 12:55 | 44.68988 | 27.59564 | 13745 ft | 372 kts | 126° |
| 2026-05-06 12:55 | 44.67373 | 27.62358 | 13260 ft | 370 kts | 125° |
| 2026-05-06 12:55 | 44.65960 | 27.65336 | 12754 ft | 364 kts | 115° |
| 2026-05-06 12:56 | 44.65040 | 27.68573 | 12270 ft | 358 kts | 103° |
| 2026-05-06 12:56 | 44.64467 | 27.71929 | 11788 ft | 354 kts | 99° |
| 2026-05-06 12:56 | 44.63952 | 27.75324 | 11305 ft | 352 kts | 98° |
| 2026-05-06 12:56 | 44.63448 | 27.78671 | 10828 ft | 350 kts | 99° |
| 2026-05-06 12:57 | 44.62944 | 27.81944 | 10559 ft | 341 kts | 99° |
| 2026-05-06 12:57 | 44.62441 | 27.85143 | 10424 ft | 327 kts | 99° |
| 2026-05-06 12:57 | 44.61957 | 27.88188 | 10282 ft | 315 kts | 99° |
| 2026-05-06 12:57 | 44.61489 | 27.91121 | 10138 ft | 303 kts | 99° |
| 2026-05-06 12:58 | 44.61037 | 27.93944 | 10004 ft | 292 kts | 99° |
| 2026-05-06 12:58 | 44.60598 | 27.96688 | 9636 ft | 291 kts | 99° |
| 2026-05-06 12:58 | 44.60157 | 27.99443 | 9254 ft | 289 kts | 99° |
| 2026-05-06 12:58 | 44.59725 | 28.02126 | 8901 ft | 286 kts | 99° |
| 2026-05-06 12:59 | 44.59283 | 28.04866 | 8547 ft | 284 kts | 98° |
| 2026-05-06 12:59 | 44.58854 | 28.07527 | 8276 ft | 279 kts | 99° |
| 2026-05-06 12:59 | 44.58432 | 28.10126 | 7974 ft | 268 kts | 99° |
| 2026-05-06 12:59 | 44.58026 | 28.12629 | 7685 ft | 266 kts | 98° |
| 2026-05-06 13:00 | 44.57618 | 28.15154 | 7403 ft | 264 kts | 98° |
| 2026-05-06 13:00 | 44.57212 | 28.17653 | 7099 ft | 259 kts | 98° |
| 2026-05-06 13:00 | 44.56817 | 28.20072 | 6801 ft | 252 kts | 98° |
| 2026-05-06 13:00 | 44.56432 | 28.22433 | 6515 ft | 247 kts | 99° |
| 2026-05-06 13:01 | 44.56053 | 28.24744 | 6201 ft | 238 kts | 98° |
| 2026-05-06 13:01 | 44.55694 | 28.26967 | 5952 ft | 235 kts | 97° |
| 2026-05-06 13:01 | 44.55518 | 28.29240 | 5697 ft | 233 kts | 86° |
| 2026-05-06 13:01 | 44.55653 | 28.31477 | 5389 ft | 229 kts | 78° |
| 2026-05-06 13:02 | 44.55922 | 28.33658 | 5124 ft | 224 kts | 78° |
| 2026-05-06 13:02 | 44.56195 | 28.35750 | 4866 ft | 216 kts | 78° |
| 2026-05-06 13:02 | 44.56453 | 28.37765 | 4692 ft | 202 kts | 78° |
| 2026-05-06 13:02 | 44.56689 | 28.39639 | 4473 ft | 193 kts | 78° |
| 2026-05-06 13:03 | 44.56884 | 28.41470 | 4217 ft | 187 kts | 85° |
| 2026-05-06 13:03 | 44.56829 | 28.43273 | 3960 ft | 183 kts | 97° |
| 2026-05-06 13:03 | 44.56533 | 28.44989 | 3722 ft | 183 kts | 105° |
| 2026-05-06 13:03 | 44.56161 | 28.46695 | 3474 ft | 182 kts | 107° |
| 2026-05-06 13:04 | 44.55791 | 28.48343 | 3212 ft | 175 kts | 107° |
| 2026-05-06 13:04 | 44.55392 | 28.49926 | 2940 ft | 170 kts | 120° |
| 2026-05-06 13:04 | 44.54499 | 28.50906 | 2661 ft | 164 kts | 161° |
| 2026-05-06 13:04 | 44.53385 | 28.51103 | 2495 ft | 160 kts | 177° |
| 2026-05-06 13:05 | 44.52272 | 28.51033 | 2499 ft | 161 kts | 181° |
| 2026-05-06 13:05 | 44.51190 | 28.50893 | 2471 ft | 155 kts | 182° |
| 2026-05-06 13:05 | 44.50107 | 28.50740 | 2486 ft | 155 kts | 182° |
| 2026-05-06 13:05 | 44.49072 | 28.50593 | 2498 ft | 152 kts | 182° |
| 2026-05-06 13:06 | 44.48039 | 28.50449 | 2299 ft | 146 kts | 182° |
| 2026-05-06 13:06 | 44.47025 | 28.50310 | 2112 ft | 145 kts | 182° |
| 2026-05-06 13:06 | 44.46021 | 28.50174 | 1929 ft | 144 kts | 182° |
| 2026-05-06 13:06 | 44.45019 | 28.50039 | 1751 ft | 144 kts | 182° |
| 2026-05-06 13:07 | 44.44022 | 28.49902 | 1554 ft | 144 kts | 181° |
| 2026-05-06 13:07 | 44.43032 | 28.49768 | 1366 ft | 144 kts | 181° |
| 2026-05-06 13:07 | 44.42032 | 28.49632 | 1180 ft | 144 kts | 182° |
| 2026-05-06 13:07 | 44.41035 | 28.49498 | 994 ft | 142 kts | 183° |
| 2026-05-06 13:08 | 44.40050 | 28.49361 | 795 ft | 142 kts | 181° |
| 2026-05-06 13:08 | 44.39077 | 28.49229 | 631 ft | 141 kts | 183° |
| 2026-05-06 13:08 | 44.38088 | 28.49091 | 456 ft | 141 kts | 182° |
| 2026-05-06 13:08 | 44.37125 | 28.48973 | 341 ft | 135 kts | 184° |
| 2026-05-06 13:09 | 44.36295 | 28.48862 | 322 ft | 96 kts | 185° |
| 2026-05-06 13:09 | 44.35802 | 28.48793 | 316 ft | 52 kts | 186° |
| 2026-05-06 13:09 | 44.35461 | 28.48741 | 313 ft | 47 kts | 184° |
| 2026-05-06 13:09 | 44.35261 | 28.48723 | 313 ft | 21 kts | 187° |
| 2026-05-06 13:10 | 44.35170 | 28.48664 | 313 ft | 13 kts | 225° |
| 2026-05-06 13:10 | 44.35114 | 28.48575 | 316 ft | 11 kts | 229° |
| 2026-05-06 13:10 | 44.35063 | 28.48494 | 316 ft | 11 kts | 227° |
| 2026-05-06 13:10 | 44.35029 | 28.48406 | 318 ft | 9 kts | 253° |
| 2026-05-06 13:11 | 44.35003 | 28.48340 | 319 ft | 6 kts | 195° |
| 2026-05-06 13:11 | 44.34958 | 28.48334 | 319 ft | 6 kts | 185° |
| 2026-05-06 13:11 | 44.34907 | 28.48327 | 319 ft | 7 kts | 186° |
| 2026-05-06 13:11 | 44.34872 | 28.48325 | 319 ft | 1 kts | 140° |
| 2026-05-06 13:12 | 44.34873 | 28.48352 | 319 ft | 3 kts | 59° |
| 2026-05-06 13:12 | 44.34885 | 28.48370 | 319 ft | 0 kts | 44° |